sensor_id;sensor_type;location;lat;lon;timestamp;temperature;humidity
32187;DHT22;18686;53.084;8.872;2023-07-31T09:37:19;16.80;99.90
32187;DHT22;18686;53.084;8.872;2023-07-31T09:39:48;16.80;99.90
32187;DHT22;18686;53.084;8.872;2023-07-31T09:42:25;16.70;99.90
32187;DHT22;18686;53.084;8.872;2023-07-31T09:45:07;16.70;99.90
32187;DHT22;18686;53.084;8.872;2023-07-31T09:47:35;16.60;99.90
32187;DHT22;18686;53.084;8.872;2023-07-31T09:50:07;16.80;99.90
32187;DHT22;18686;53.084;8.872;2023-07-31T09:52:39;16.90;99.90
32187;DHT22;18686;53.084;8.872;2023-07-31T09:55:08;17.00;99.90
32187;DHT22;18686;53.084;8.872;2023-07-31T09:57:39;17.00;99.90
32187;DHT22;18686;53.084;8.872;2023-07-31T10:00:09;17.20;99.90
32187;DHT22;18686;53.084;8.872;2023-07-31T10:02:38;17.30;99.90
32187;DHT22;18686;53.084;8.872;2023-07-31T10:05:08;17.40;99.90
32187;DHT22;18686;53.084;8.872;2023-07-31T10:07:39;17.50;99.90
32187;DHT22;18686;53.084;8.872;2023-07-31T10:10:08;17.50;99.90
32187;DHT22;18686;53.084;8.872;2023-07-31T10:12:37;17.60;99.90
32187;DHT22;18686;53.084;8.872;2023-07-31T10:15:07;17.60;99.90
32187;DHT22;18686;53.084;8.872;2023-07-31T10:17:36;17.50;99.90
32187;DHT22;18686;53.084;8.872;2023-07-31T10:20:06;17.50;99.90
32187;DHT22;18686;53.084;8.872;2023-07-31T10:22:35;17.80;99.90
32187;DHT22;18686;53.084;8.872;2023-07-31T10:25:08;17.70;99.90
32187;DHT22;18686;53.084;8.872;2023-07-31T10:27:38;17.70;99.90
32187;DHT22;18686;53.084;8.872;2023-07-31T10:30:11;17.80;99.90
32187;DHT22;18686;53.084;8.872;2023-07-31T10:32:43;18.00;99.90
32187;DHT22;18686;53.084;8.872;2023-07-31T10:35:12;18.00;99.90
32187;DHT22;18686;53.084;8.872;2023-07-31T10:37:42;17.90;99.90
32187;DHT22;18686;53.084;8.872;2023-07-31T10:40:16;18.00;99.90
32187;DHT22;18686;53.084;8.872;2023-07-31T10:42:48;18.10;99.90
32187;DHT22;18686;53.084;8.872;2023-07-31T10:45:24;18.00;99.90
32187;DHT22;18686;53.084;8.872;2023-07-31T10:48:01;18.00;99.90
32187;DHT22;18686;53.084;8.872;2023-07-31T10:50:31;18.00;99.90
32187;DHT22;18686;53.084;8.872;2023-07-31T10:53:00;17.80;99.90
32187;DHT22;18686;53.084;8.872;2023-07-31T10:55:31;17.80;99.90
32187;DHT22;18686;53.084;8.872;2023-07-31T10:58:06;17.80;99.90
32187;DHT22;18686;53.084;8.872;2023-07-31T11:00:37;17.70;99.90
32187;DHT22;18686;53.084;8.872;2023-07-31T11:03:07;17.70;99.90
32187;DHT22;18686;53.084;8.872;2023-07-31T11:05:45;17.70;99.90
32187;DHT22;18686;53.084;8.872;2023-07-31T11:08:21;17.70;99.90
32187;DHT22;18686;53.084;8.872;2023-07-31T11:11:05;17.80;99.90
32187;DHT22;18686;53.084;8.872;2023-07-31T11:13:39;17.90;99.90
32187;DHT22;18686;53.084;8.872;2023-07-31T11:16:08;17.90;99.90
32187;DHT22;18686;53.084;8.872;2023-07-31T11:18:39;18.00;99.90
32187;DHT22;18686;53.084;8.872;2023-07-31T11:21:07;18.00;99.90
32187;DHT22;18686;53.084;8.872;2023-07-31T11:23:37;18.10;99.90
32187;DHT22;18686;53.084;8.872;2023-07-31T11:26:07;18.20;99.90
32187;DHT22;18686;53.084;8.872;2023-07-31T11:28:36;18.20;99.90
32187;DHT22;18686;53.084;8.872;2023-07-31T11:31:05;18.00;99.90
32187;DHT22;18686;53.084;8.872;2023-07-31T11:33:37;18.00;99.90
32187;DHT22;18686;53.084;8.872;2023-07-31T11:36:05;18.00;99.90
32187;DHT22;18686;53.084;8.872;2023-07-31T11:38:34;18.00;99.90
32187;DHT22;18686;53.084;8.872;2023-07-31T11:41:04;18.00;99.90
32187;DHT22;18686;53.084;8.872;2023-07-31T11:43:34;18.10;99.90
32187;DHT22;18686;53.084;8.872;2023-07-31T11:46:03;18.10;99.90
32187;DHT22;18686;53.084;8.872;2023-07-31T11:48:37;18.10;99.90
32187;DHT22;18686;53.084;8.872;2023-07-31T11:51:07;18.10;99.90
32187;DHT22;18686;53.084;8.872;2023-07-31T11:53:41;18.10;99.90
32187;DHT22;18686;53.084;8.872;2023-07-31T11:56:13;18.10;99.90
32187;DHT22;18686;53.084;8.872;2023-07-31T11:58:44;18.20;99.90
32187;DHT22;18686;53.084;8.872;2023-07-31T12:01:14;18.40;99.90
32187;DHT22;18686;53.084;8.872;2023-07-31T12:03:45;18.50;99.90
32187;DHT22;18686;53.084;8.872;2023-07-31T12:06:14;18.60;99.90
32187;DHT22;18686;53.084;8.872;2023-07-31T12:08:42;18.80;99.90
32187;DHT22;18686;53.084;8.872;2023-07-31T12:11:10;18.90;99.90
32187;DHT22;18686;53.084;8.872;2023-07-31T12:13:38;19.00;99.90
32187;DHT22;18686;53.084;8.872;2023-07-31T12:16:08;19.10;99.90
32187;DHT22;18686;53.084;8.872;2023-07-31T12:18:38;19.10;99.90
32187;DHT22;18686;53.084;8.872;2023-07-31T12:21:08;19.20;99.90
32187;DHT22;18686;53.084;8.872;2023-07-31T12:23:38;19.00;99.90
32187;DHT22;18686;53.084;8.872;2023-07-31T12:26:10;19.00;99.90
32187;DHT22;18686;53.084;8.872;2023-07-31T12:28:41;18.90;99.90
32187;DHT22;18686;53.084;8.872;2023-07-31T12:31:12;18.90;99.90
32187;DHT22;18686;53.084;8.872;2023-07-31T12:33:41;19.00;99.90
32187;DHT22;18686;53.084;8.872;2023-07-31T12:36:13;19.00;99.90
32187;DHT22;18686;53.084;8.872;2023-07-31T12:38:42;19.00;99.90
32187;DHT22;18686;53.084;8.872;2023-07-31T12:41:10;18.90;99.90
32187;DHT22;18686;53.084;8.872;2023-07-31T12:43:40;19.00;99.90
32187;DHT22;18686;53.084;8.872;2023-07-31T12:46:09;19.10;99.90
32187;DHT22;18686;53.084;8.872;2023-07-31T12:48:40;19.10;99.90
32187;DHT22;18686;53.084;8.872;2023-07-31T12:51:08;19.00;99.90
32187;DHT22;18686;53.084;8.872;2023-07-31T12:53:37;19.00;99.90
32187;DHT22;18686;53.084;8.872;2023-07-31T12:56:05;18.90;99.90
32187;DHT22;18686;53.084;8.872;2023-07-31T12:58:33;18.80;99.90
32187;DHT22;18686;53.084;8.872;2023-07-31T13:01:02;19.00;99.90
32187;DHT22;18686;53.084;8.872;2023-07-31T13:03:30;19.10;99.90
32187;DHT22;18686;53.084;8.872;2023-07-31T13:06:00;19.20;99.90
32187;DHT22;18686;53.084;8.872;2023-07-31T13:08:28;19.30;99.90
32187;DHT22;18686;53.084;8.872;2023-07-31T13:10:57;19.30;99.90
32187;DHT22;18686;53.084;8.872;2023-07-31T13:13:25;19.20;99.90
32187;DHT22;18686;53.084;8.872;2023-07-31T13:15:56;19.20;99.90
32187;DHT22;18686;53.084;8.872;2023-07-31T13:18:24;19.10;99.90
32187;DHT22;18686;53.084;8.872;2023-07-31T13:20:52;19.00;99.90
32187;DHT22;18686;53.084;8.872;2023-07-31T13:23:22;19.00;99.90
32187;DHT22;18686;53.084;8.872;2023-07-31T13:25:50;18.90;99.90
32187;DHT22;18686;53.084;8.872;2023-07-31T13:28:19;18.90;99.90
32187;DHT22;18686;53.084;8.872;2023-07-31T13:30:48;18.90;99.90
32187;DHT22;18686;53.084;8.872;2023-07-31T13:33:16;18.90;99.90
32187;DHT22;18686;53.084;8.872;2023-07-31T13:36:03;19.00;99.90
32187;DHT22;18686;53.084;8.872;2023-07-31T13:38:33;19.10;99.90
32187;DHT22;18686;53.084;8.872;2023-07-31T13:41:01;19.20;99.90
32187;DHT22;18686;53.084;8.872;2023-07-31T13:43:30;19.10;99.90
32187;DHT22;18686;53.084;8.872;2023-07-31T13:45:58;19.10;99.90
32187;DHT22;18686;53.084;8.872;2023-07-31T13:48:31;19.00;99.90
32187;DHT22;18686;53.084;8.872;2023-07-31T13:51:00;18.90;99.90
32187;DHT22;18686;53.084;8.872;2023-07-31T13:53:28;18.80;99.90
32187;DHT22;18686;53.084;8.872;2023-07-31T13:55:58;18.80;99.90
32187;DHT22;18686;53.084;8.872;2023-07-31T13:58:26;18.70;99.90
32187;DHT22;18686;53.084;8.872;2023-07-31T14:00:54;18.60;99.90
32187;DHT22;18686;53.084;8.872;2023-07-31T14:03:22;18.50;99.90
32187;DHT22;18686;53.084;8.872;2023-07-31T14:05:52;18.40;99.90
32187;DHT22;18686;53.084;8.872;2023-07-31T14:08:20;18.20;99.90
32187;DHT22;18686;53.084;8.872;2023-07-31T14:10:49;18.20;99.90
32187;DHT22;18686;53.084;8.872;2023-07-31T14:13:18;18.20;99.90
32187;DHT22;18686;53.084;8.872;2023-07-31T14:15:47;18.20;99.90
32187;DHT22;18686;53.084;8.872;2023-07-31T14:18:15;18.20;99.90
32187;DHT22;18686;53.084;8.872;2023-07-31T14:20:44;18.20;99.90
32187;DHT22;18686;53.084;8.872;2023-07-31T14:23:12;18.10;99.90
32187;DHT22;18686;53.084;8.872;2023-07-31T14:25:41;18.20;99.90
32187;DHT22;18686;53.084;8.872;2023-07-31T14:28:09;18.10;99.90
32187;DHT22;18686;53.084;8.872;2023-07-31T14:30:39;18.20;99.90
32187;DHT22;18686;53.084;8.872;2023-07-31T14:33:07;18.30;99.90
32187;DHT22;18686;53.084;8.872;2023-07-31T14:35:36;18.30;99.90
32187;DHT22;18686;53.084;8.872;2023-07-31T14:38:05;18.40;99.90
32187;DHT22;18686;53.084;8.872;2023-07-31T14:40:33;18.40;99.90
32187;DHT22;18686;53.084;8.872;2023-07-31T14:43:01;18.40;99.90
32187;DHT22;18686;53.084;8.872;2023-07-31T14:45:29;18.50;99.90
32187;DHT22;18686;53.084;8.872;2023-07-31T14:47:59;18.60;99.90
32187;DHT22;18686;53.084;8.872;2023-07-31T14:50:28;18.50;99.90
32187;DHT22;18686;53.084;8.872;2023-07-31T14:52:56;18.40;99.90
32187;DHT22;18686;53.084;8.872;2023-07-31T14:55:25;18.40;99.90
32187;DHT22;18686;53.084;8.872;2023-07-31T14:57:53;18.30;99.90
32187;DHT22;18686;53.084;8.872;2023-07-31T15:00:21;18.30;99.90
32187;DHT22;18686;53.084;8.872;2023-07-31T15:02:51;18.30;99.90
32187;DHT22;18686;53.084;8.872;2023-07-31T15:05:21;18.20;99.90
32187;DHT22;18686;53.084;8.872;2023-07-31T15:07:50;18.20;99.90
32187;DHT22;18686;53.084;8.872;2023-07-31T15:10:19;18.30;99.90
32187;DHT22;18686;53.084;8.872;2023-07-31T15:12:48;18.30;99.90
32187;DHT22;18686;53.084;8.872;2023-07-31T15:15:16;18.30;99.90
32187;DHT22;18686;53.084;8.872;2023-07-31T15:17:44;18.30;99.90
32187;DHT22;18686;53.084;8.872;2023-07-31T15:20:12;18.30;99.90
32187;DHT22;18686;53.084;8.872;2023-07-31T15:22:43;18.40;99.90
32187;DHT22;18686;53.084;8.872;2023-07-31T15:25:11;18.30;99.90
32187;DHT22;18686;53.084;8.872;2023-07-31T15:27:39;18.40;99.90
32187;DHT22;18686;53.084;8.872;2023-07-31T15:30:09;18.40;99.90
32187;DHT22;18686;53.084;8.872;2023-07-31T15:32:38;18.40;99.90
32187;DHT22;18686;53.084;8.872;2023-07-31T15:35:07;18.40;99.90
32187;DHT22;18686;53.084;8.872;2023-07-31T15:37:35;18.30;99.90
32187;DHT22;18686;53.084;8.872;2023-07-31T15:40:23;18.30;99.90
32187;DHT22;18686;53.084;8.872;2023-07-31T15:42:52;18.30;99.90
32187;DHT22;18686;53.084;8.872;2023-07-31T15:45:21;18.20;99.90
32187;DHT22;18686;53.084;8.872;2023-07-31T15:47:49;18.20;99.90
32187;DHT22;18686;53.084;8.872;2023-07-31T15:50:18;18.20;99.90
32187;DHT22;18686;53.084;8.872;2023-07-31T15:52:46;18.20;99.90
32187;DHT22;18686;53.084;8.872;2023-07-31T15:55:14;18.20;99.90
32187;DHT22;18686;53.084;8.872;2023-07-31T15:57:45;18.20;99.90
32187;DHT22;18686;53.084;8.872;2023-07-31T16:00:14;18.30;99.90
32187;DHT22;18686;53.084;8.872;2023-07-31T16:02:43;18.30;99.90
32187;DHT22;18686;53.084;8.872;2023-07-31T16:05:11;18.30;99.90
32187;DHT22;18686;53.084;8.872;2023-07-31T16:07:40;18.30;99.90
32187;DHT22;18686;53.084;8.872;2023-07-31T16:10:08;18.30;99.90
32187;DHT22;18686;53.084;8.872;2023-07-31T16:12:37;18.30;99.90
32187;DHT22;18686;53.084;8.872;2023-07-31T16:15:08;18.40;99.90
32187;DHT22;18686;53.084;8.872;2023-07-31T16:17:37;18.30;99.90
32187;DHT22;18686;53.084;8.872;2023-07-31T16:20:06;18.30;99.90
32187;DHT22;18686;53.084;8.872;2023-07-31T16:22:35;18.30;99.90
32187;DHT22;18686;53.084;8.872;2023-07-31T16:25:05;18.30;99.90
32187;DHT22;18686;53.084;8.872;2023-07-31T16:27:34;18.30;99.90
32187;DHT22;18686;53.084;8.872;2023-07-31T16:30:03;18.30;99.90
32187;DHT22;18686;53.084;8.872;2023-07-31T16:32:33;18.20;99.90
32187;DHT22;18686;53.084;8.872;2023-07-31T16:35:03;18.30;99.90
32187;DHT22;18686;53.084;8.872;2023-07-31T16:37:32;18.20;99.90
32187;DHT22;18686;53.084;8.872;2023-07-31T16:40:00;18.20;99.90
32187;DHT22;18686;53.084;8.872;2023-07-31T16:42:29;18.20;99.90
32187;DHT22;18686;53.084;8.872;2023-07-31T16:44:57;18.20;99.90
32187;DHT22;18686;53.084;8.872;2023-07-31T16:47:26;18.20;99.90
32187;DHT22;18686;53.084;8.872;2023-07-31T16:49:56;18.10;99.90
32187;DHT22;18686;53.084;8.872;2023-07-31T16:52:24;18.10;99.90
32187;DHT22;18686;53.084;8.872;2023-07-31T16:54:52;18.00;99.90
32187;DHT22;18686;53.084;8.872;2023-07-31T16:57:21;18.00;99.90
32187;DHT22;18686;53.084;8.872;2023-07-31T16:59:51;18.00;99.90
32187;DHT22;18686;53.084;8.872;2023-07-31T17:02:20;17.90;99.90
32187;DHT22;18686;53.084;8.872;2023-07-31T17:04:48;17.90;99.90
32187;DHT22;18686;53.084;8.872;2023-07-31T17:07:18;17.90;99.90
32187;DHT22;18686;53.084;8.872;2023-07-31T17:09:48;17.90;99.90
32187;DHT22;18686;53.084;8.872;2023-07-31T17:12:16;18.00;99.90
32187;DHT22;18686;53.084;8.872;2023-07-31T17:14:45;18.00;99.90
32187;DHT22;18686;53.084;8.872;2023-07-31T17:17:13;18.00;99.90
32187;DHT22;18686;53.084;8.872;2023-07-31T17:19:42;18.00;99.90
32187;DHT22;18686;53.084;8.872;2023-07-31T17:22:10;18.00;99.90
32187;DHT22;18686;53.084;8.872;2023-07-31T17:24:40;18.00;99.90
32187;DHT22;18686;53.084;8.872;2023-07-31T17:27:08;18.00;99.90
32187;DHT22;18686;53.084;8.872;2023-07-31T17:29:36;18.00;99.90
32187;DHT22;18686;53.084;8.872;2023-07-31T17:32:06;18.00;99.90
32187;DHT22;18686;53.084;8.872;2023-07-31T17:34:34;18.00;99.90
32187;DHT22;18686;53.084;8.872;2023-07-31T17:37:03;17.90;99.90
32187;DHT22;18686;53.084;8.872;2023-07-31T17:39:30;17.90;99.90
32187;DHT22;18686;53.084;8.872;2023-07-31T17:42:00;17.90;99.90
32187;DHT22;18686;53.084;8.872;2023-07-31T17:44:28;17.90;99.90
32187;DHT22;18686;53.084;8.872;2023-07-31T17:46:57;17.90;99.90
32187;DHT22;18686;53.084;8.872;2023-07-31T17:49:26;17.80;99.90
32187;DHT22;18686;53.084;8.872;2023-07-31T17:51:54;17.70;99.90
32187;DHT22;18686;53.084;8.872;2023-07-31T17:54:22;17.60;99.90
32187;DHT22;18686;53.084;8.872;2023-07-31T17:56:52;17.60;99.90
32187;DHT22;18686;53.084;8.872;2023-07-31T17:59:22;17.50;99.90
32187;DHT22;18686;53.084;8.872;2023-07-31T18:01:50;17.50;99.90
32187;DHT22;18686;53.084;8.872;2023-07-31T18:04:19;17.40;99.90
32187;DHT22;18686;53.084;8.872;2023-07-31T18:06:47;17.40;99.90
32187;DHT22;18686;53.084;8.872;2023-07-31T18:09:15;17.30;99.90
32187;DHT22;18686;53.084;8.872;2023-07-31T18:11:43;17.30;99.90
32187;DHT22;18686;53.084;8.872;2023-07-31T18:14:11;17.30;99.90
32187;DHT22;18686;53.084;8.872;2023-07-31T18:16:41;17.30;99.90
32187;DHT22;18686;53.084;8.872;2023-07-31T18:19:10;17.20;99.90
32187;DHT22;18686;53.084;8.872;2023-07-31T18:21:38;17.20;99.90
32187;DHT22;18686;53.084;8.872;2023-07-31T18:24:07;17.20;99.90
32187;DHT22;18686;53.084;8.872;2023-07-31T18:26:35;17.10;99.90
32187;DHT22;18686;53.084;8.872;2023-07-31T18:29:05;17.10;99.90
32187;DHT22;18686;53.084;8.872;2023-07-31T18:31:33;17.10;99.90
32187;DHT22;18686;53.084;8.872;2023-07-31T18:34:03;17.10;99.90
32187;DHT22;18686;53.084;8.872;2023-07-31T18:36:31;17.10;99.90
32187;DHT22;18686;53.084;8.872;2023-07-31T18:39:02;17.10;99.90
32187;DHT22;18686;53.084;8.872;2023-07-31T18:41:31;17.00;99.90
32187;DHT22;18686;53.084;8.872;2023-07-31T18:43:59;17.00;99.90
32187;DHT22;18686;53.084;8.872;2023-07-31T18:46:28;17.00;99.90
32187;DHT22;18686;53.084;8.872;2023-07-31T18:48:57;17.00;99.90
32187;DHT22;18686;53.084;8.872;2023-07-31T18:51:26;16.90;99.90
32187;DHT22;18686;53.084;8.872;2023-07-31T18:53:54;16.90;99.90
32187;DHT22;18686;53.084;8.872;2023-07-31T18:56:22;16.90;99.90
32187;DHT22;18686;53.084;8.872;2023-07-31T18:58:51;16.90;99.90
32187;DHT22;18686;53.084;8.872;2023-07-31T19:01:20;16.90;99.90
32187;DHT22;18686;53.084;8.872;2023-07-31T19:03:49;16.90;99.90
32187;DHT22;18686;53.084;8.872;2023-07-31T19:06:17;16.90;99.90
32187;DHT22;18686;53.084;8.872;2023-07-31T19:08:47;16.80;99.90
32187;DHT22;18686;53.084;8.872;2023-07-31T19:11:15;16.90;99.90
32187;DHT22;18686;53.084;8.872;2023-07-31T19:13:58;16.80;99.90
32187;DHT22;18686;53.084;8.872;2023-07-31T19:16:26;16.80;99.90
32187;DHT22;18686;53.084;8.872;2023-07-31T19:18:55;16.90;99.90
32187;DHT22;18686;53.084;8.872;2023-07-31T19:21:23;16.90;99.90
32187;DHT22;18686;53.084;8.872;2023-07-31T19:23:53;16.90;99.90
32187;DHT22;18686;53.084;8.872;2023-07-31T19:26:21;16.90;99.90
32187;DHT22;18686;53.084;8.872;2023-07-31T19:28:50;16.90;99.90
32187;DHT22;18686;53.084;8.872;2023-07-31T19:31:18;16.90;99.90
32187;DHT22;18686;53.084;8.872;2023-07-31T19:33:47;16.90;99.90
32187;DHT22;18686;53.084;8.872;2023-07-31T19:36:15;17.00;99.90
32187;DHT22;18686;53.084;8.872;2023-07-31T19:38:43;16.90;99.90
32187;DHT22;18686;53.084;8.872;2023-07-31T19:41:13;17.00;99.90
32187;DHT22;18686;53.084;8.872;2023-07-31T19:43:42;17.00;99.90
32187;DHT22;18686;53.084;8.872;2023-07-31T19:46:11;17.00;99.90
32187;DHT22;18686;53.084;8.872;2023-07-31T19:48:39;17.00;99.90
32187;DHT22;18686;53.084;8.872;2023-07-31T19:51:08;17.00;99.90
32187;DHT22;18686;53.084;8.872;2023-07-31T19:53:36;17.00;99.90
32187;DHT22;18686;53.084;8.872;2023-07-31T19:56:05;17.00;99.90
32187;DHT22;18686;53.084;8.872;2023-07-31T19:58:35;17.00;99.90
32187;DHT22;18686;53.084;8.872;2023-07-31T20:01:04;17.00;99.90
32187;DHT22;18686;53.084;8.872;2023-07-31T20:03:32;17.00;99.90
32187;DHT22;18686;53.084;8.872;2023-07-31T20:06:01;17.00;99.90
32187;DHT22;18686;53.084;8.872;2023-07-31T20:08:29;17.00;99.90
32187;DHT22;18686;53.084;8.872;2023-07-31T20:10:57;17.00;99.90
32187;DHT22;18686;53.084;8.872;2023-07-31T20:13:27;17.00;99.90
32187;DHT22;18686;53.084;8.872;2023-07-31T20:15:56;17.00;99.90
32187;DHT22;18686;53.084;8.872;2023-07-31T20:18:24;17.00;99.90
32187;DHT22;18686;53.084;8.872;2023-07-31T20:20:53;17.00;99.90
32187;DHT22;18686;53.084;8.872;2023-07-31T20:23:22;16.90;99.90
32187;DHT22;18686;53.084;8.872;2023-07-31T20:26:08;17.00;99.90
32187;DHT22;18686;53.084;8.872;2023-07-31T20:28:37;17.00;99.90
32187;DHT22;18686;53.084;8.872;2023-07-31T20:31:07;16.90;99.90
32187;DHT22;18686;53.084;8.872;2023-07-31T20:33:35;16.90;99.90
32187;DHT22;18686;53.084;8.872;2023-07-31T20:36:04;16.90;99.90
32187;DHT22;18686;53.084;8.872;2023-07-31T20:38:33;16.90;99.90
32187;DHT22;18686;53.084;8.872;2023-07-31T20:41:01;16.90;99.90
32187;DHT22;18686;53.084;8.872;2023-07-31T20:43:30;16.90;99.90
32187;DHT22;18686;53.084;8.872;2023-07-31T20:45:58;16.90;99.90
32187;DHT22;18686;53.084;8.872;2023-07-31T20:48:29;16.80;99.90
32187;DHT22;18686;53.084;8.872;2023-07-31T20:50:59;16.90;99.90
32187;DHT22;18686;53.084;8.872;2023-07-31T20:53:28;16.80;99.90
32187;DHT22;18686;53.084;8.872;2023-07-31T20:55:57;16.80;99.90
32187;DHT22;18686;53.084;8.872;2023-07-31T20:58:26;16.80;99.90
32187;DHT22;18686;53.084;8.872;2023-07-31T21:00:54;16.80;99.90
32187;DHT22;18686;53.084;8.872;2023-07-31T21:03:23;16.80;99.90
32187;DHT22;18686;53.084;8.872;2023-07-31T21:05:54;16.80;99.90
32187;DHT22;18686;53.084;8.872;2023-07-31T21:08:24;16.80;99.90
32187;DHT22;18686;53.084;8.872;2023-07-31T21:10:53;16.80;99.90
32187;DHT22;18686;53.084;8.872;2023-07-31T21:13:21;16.70;99.90
32187;DHT22;18686;53.084;8.872;2023-07-31T21:15:50;16.70;99.90
32187;DHT22;18686;53.084;8.872;2023-07-31T21:18:19;16.70;99.90
32187;DHT22;18686;53.084;8.872;2023-07-31T21:20:47;16.70;99.90
32187;DHT22;18686;53.084;8.872;2023-07-31T21:23:17;16.70;99.90
32187;DHT22;18686;53.084;8.872;2023-07-31T21:25:46;16.70;99.90
32187;DHT22;18686;53.084;8.872;2023-07-31T21:28:15;16.60;99.90
32187;DHT22;18686;53.084;8.872;2023-07-31T21:30:43;16.60;99.90
32187;DHT22;18686;53.084;8.872;2023-07-31T21:33:12;16.60;99.90
32187;DHT22;18686;53.084;8.872;2023-07-31T21:35:40;16.50;99.90
32187;DHT22;18686;53.084;8.872;2023-07-31T21:38:09;16.50;99.90
32187;DHT22;18686;53.084;8.872;2023-07-31T21:40:39;16.40;99.90
32187;DHT22;18686;53.084;8.872;2023-07-31T21:43:07;16.40;99.90
32187;DHT22;18686;53.084;8.872;2023-07-31T21:45:36;16.30;99.90
32187;DHT22;18686;53.084;8.872;2023-07-31T21:48:05;16.30;99.90
32187;DHT22;18686;53.084;8.872;2023-07-31T21:50:33;16.20;99.90
32187;DHT22;18686;53.084;8.872;2023-07-31T21:53:01;16.20;99.90
32187;DHT22;18686;53.084;8.872;2023-07-31T21:55:29;16.10;99.90
32187;DHT22;18686;53.084;8.872;2023-07-31T21:57:59;16.10;99.90
32187;DHT22;18686;53.084;8.872;2023-07-31T22:00:27;16.10;99.90
32187;DHT22;18686;53.084;8.872;2023-07-31T22:02:55;16.00;99.90
32187;DHT22;18686;53.084;8.872;2023-07-31T22:05:24;16.00;99.90
32187;DHT22;18686;53.084;8.872;2023-07-31T22:07:53;16.00;99.90
32187;DHT22;18686;53.084;8.872;2023-07-31T22:10:21;16.00;99.90
32187;DHT22;18686;53.084;8.872;2023-07-31T22:12:49;15.90;99.90
32187;DHT22;18686;53.084;8.872;2023-07-31T22:15:19;15.90;99.90
32187;DHT22;18686;53.084;8.872;2023-07-31T22:17:48;15.90;99.90
32187;DHT22;18686;53.084;8.872;2023-07-31T22:20:16;15.90;99.90
32187;DHT22;18686;53.084;8.872;2023-07-31T22:22:44;15.90;99.90
32187;DHT22;18686;53.084;8.872;2023-07-31T22:25:13;15.90;99.90
32187;DHT22;18686;53.084;8.872;2023-07-31T22:27:41;15.80;99.90
32187;DHT22;18686;53.084;8.872;2023-07-31T22:30:11;15.80;99.90
32187;DHT22;18686;53.084;8.872;2023-07-31T22:32:41;15.80;99.90
32187;DHT22;18686;53.084;8.872;2023-07-31T22:35:09;15.80;99.90
32187;DHT22;18686;53.084;8.872;2023-07-31T22:37:37;15.80;99.90
32187;DHT22;18686;53.084;8.872;2023-07-31T22:40:07;15.80;99.90
32187;DHT22;18686;53.084;8.872;2023-07-31T22:42:35;15.80;99.90
32187;DHT22;18686;53.084;8.872;2023-07-31T22:45:05;15.80;99.90
32187;DHT22;18686;53.084;8.872;2023-07-31T22:47:33;15.80;99.90
32187;DHT22;18686;53.084;8.872;2023-07-31T22:50:07;15.80;99.90
32187;DHT22;18686;53.084;8.872;2023-07-31T22:52:36;15.80;99.90
32187;DHT22;18686;53.084;8.872;2023-07-31T22:55:06;15.80;99.90
32187;DHT22;18686;53.084;8.872;2023-07-31T22:57:34;15.80;99.90
32187;DHT22;18686;53.084;8.872;2023-07-31T23:00:04;15.80;99.90
32187;DHT22;18686;53.084;8.872;2023-07-31T23:02:34;15.80;99.90
32187;DHT22;18686;53.084;8.872;2023-07-31T23:05:03;15.80;99.90
32187;DHT22;18686;53.084;8.872;2023-07-31T23:07:32;15.80;99.90
32187;DHT22;18686;53.084;8.872;2023-07-31T23:10:01;15.80;99.90
32187;DHT22;18686;53.084;8.872;2023-07-31T23:12:29;15.80;99.90
32187;DHT22;18686;53.084;8.872;2023-07-31T23:14:58;15.80;99.90
32187;DHT22;18686;53.084;8.872;2023-07-31T23:17:26;15.80;99.90
32187;DHT22;18686;53.084;8.872;2023-07-31T23:19:57;15.80;99.90
32187;DHT22;18686;53.084;8.872;2023-07-31T23:22:25;15.80;99.90
32187;DHT22;18686;53.084;8.872;2023-07-31T23:24:55;15.90;99.90
32187;DHT22;18686;53.084;8.872;2023-07-31T23:27:24;15.90;99.90
32187;DHT22;18686;53.084;8.872;2023-07-31T23:29:52;15.90;99.90
32187;DHT22;18686;53.084;8.872;2023-07-31T23:32:21;15.90;99.90
32187;DHT22;18686;53.084;8.872;2023-07-31T23:34:50;15.90;99.90
32187;DHT22;18686;53.084;8.872;2023-07-31T23:37:18;15.90;99.90
32187;DHT22;18686;53.084;8.872;2023-07-31T23:39:47;16.00;99.90
32187;DHT22;18686;53.084;8.872;2023-07-31T23:42:16;16.00;99.90
32187;DHT22;18686;53.084;8.872;2023-07-31T23:44:45;16.00;99.90
32187;DHT22;18686;53.084;8.872;2023-07-31T23:47:30;16.00;99.90
32187;DHT22;18686;53.084;8.872;2023-07-31T23:49:59;16.00;99.90
32187;DHT22;18686;53.084;8.872;2023-07-31T23:52:27;16.10;99.90
32187;DHT22;18686;53.084;8.872;2023-07-31T23:54:56;16.10;99.90
32187;DHT22;18686;53.084;8.872;2023-07-31T23:57:25;16.10;99.90
32187;DHT22;18686;53.084;8.872;2023-07-31T23:59:54;16.10;99.90
